Time;durP1;ratioP1;P1;durP2;ratioP2;P2;SDS_P1;SDS_P2;PMS_P1;PMS_P2;Temp;Humidity;BMP_temperature;BMP_pressure;BME280_temperature;BME280_humidity;BME280_pressure;Samples;Min_cycle;Max_cycle;Signal;HPM_P1;HPM_P2
2023/01/03 00:01:19;;;;;;;4.00;3.40;;;7.70;99.90;;;;;;5118901;28;20257;-80
2023/01/03 00:03:46;;;;;;;3.90;3.47;;;7.70;99.90;;;;;;5116903;28;20260;-79
2023/01/03 00:06:16;;;;;;;3.70;3.40;;;7.70;99.90;;;;;;5116519;28;20261;-79
2023/01/03 00:08:43;;;;;;;4.00;3.60;;;7.70;99.90;;;;;;5116846;28;20630;-79
2023/01/03 00:11:12;;;;;;;4.00;3.70;;;7.70;99.90;;;;;;5116910;28;20223;-79
2023/01/03 00:13:39;;;;;;;3.93;3.63;;;7.70;99.90;;;;;;5116572;28;20204;-79
2023/01/03 00:16:14;;;;;;;5.00;3.97;;;7.70;99.90;;;;;;5116879;28;20295;-79
2023/01/03 00:18:40;;;;;;;3.63;3.33;;;7.70;99.90;;;;;;5116961;28;20199;-79
2023/01/03 00:21:07;;;;;;;4.47;3.90;;;7.60;99.90;;;;;;5117145;28;20195;-79
2023/01/03 00:23:33;;;;;;;4.63;3.80;;;7.60;99.90;;;;;;5116970;28;20199;-79
2023/01/03 00:26:08;;;;;;;4.57;4.17;;;7.60;99.90;;;;;;5116918;28;20225;-79
2023/01/03 00:28:35;;;;;;;5.43;4.20;;;7.60;99.90;;;;;;5117227;28;20195;-79
2023/01/03 00:31:07;;;;;;;4.67;4.17;;;7.60;99.90;;;;;;5116804;28;20682;-78
2023/01/03 00:33:33;;;;;;;4.50;4.10;;;7.50;99.90;;;;;;5117996;28;20661;-79
2023/01/03 00:36:01;;;;;;;5.37;3.87;;;7.50;99.90;;;;;;5117272;28;20199;-79
2023/01/03 00:38:28;;;;;;;5.00;4.60;;;7.50;99.90;;;;;;5114799;28;20203;-79
2023/01/03 00:40:54;;;;;;;7.93;5.60;;;7.40;99.90;;;;;;5113290;28;20597;-78
2023/01/03 00:43:30;;;;;;;5.40;4.90;;;7.40;99.90;;;;;;5113501;28;20216;-78
2023/01/03 00:45:57;;;;;;;5.53;5.03;;;7.50;99.90;;;;;;5115534;28;20205;-78
2023/01/03 00:48:25;;;;;;;5.33;4.87;;;7.40;99.90;;;;;;5117297;28;20196;-79
2023/01/03 00:50:51;;;;;;;5.83;5.33;;;7.40;99.90;;;;;;5117620;28;20282;-79
2023/01/03 00:53:18;;;;;;;5.67;5.17;;;7.40;99.90;;;;;;5117477;28;20196;-78
2023/01/03 00:55:45;;;;;;;6.47;5.87;;;7.40;99.90;;;;;;5117845;28;20199;-78
2023/01/03 00:58:11;;;;;;;6.13;5.50;;;7.40;99.90;;;;;;5116698;28;20196;-78
2023/01/03 01:00:38;;;;;;;6.73;6.13;;;7.30;99.90;;;;;;5116761;28;20195;-78
2023/01/03 01:03:05;;;;;;;7.40;5.63;;;7.30;99.90;;;;;;5116558;28;20199;-79
2023/01/03 01:05:33;;;;;;;5.87;5.30;;;7.30;99.90;;;;;;5116404;28;20218;-78
2023/01/03 01:07:59;;;;;;;6.27;5.20;;;7.20;99.90;;;;;;5116149;28;20768;-78
2023/01/03 01:10:26;;;;;;;5.40;4.90;;;7.30;99.90;;;;;;5116257;28;20219;-78
2023/01/03 01:12:55;;;;;;;5.27;4.77;;;7.20;99.90;;;;;;5116414;28;20199;-77
2023/01/03 01:15:21;;;;;;;5.63;5.13;;;7.20;99.90;;;;;;5116689;28;20224;-78
2023/01/03 01:17:48;;;;;;;5.80;5.13;;;7.20;99.90;;;;;;5116594;28;20252;-77
2023/01/03 01:20:16;;;;;;;5.27;4.77;;;7.30;99.90;;;;;;5116317;28;20597;-78
2023/01/03 01:22:44;;;;;;;5.50;5.00;;;7.30;99.90;;;;;;5116179;28;20228;-78
2023/01/03 01:25:10;;;;;;;5.47;4.97;;;7.20;99.90;;;;;;5116089;28;20600;-78
2023/01/03 01:27:37;;;;;;;5.60;5.10;;;7.20;99.90;;;;;;5116185;28;20196;-78
2023/01/03 01:30:05;;;;;;;5.53;5.03;;;7.20;99.90;;;;;;5116124;28;20265;-77
2023/01/03 01:32:31;;;;;;;6.37;5.60;;;7.20;99.90;;;;;;5116147;28;20201;-78
2023/01/03 01:34:58;;;;;;;6.63;5.60;;;7.20;99.90;;;;;;5116014;28;20202;-78
2023/01/03 01:37:24;;;;;;;6.17;5.57;;;7.30;99.90;;;;;;5117256;28;20196;-79
2023/01/03 01:39:52;;;;;;;6.47;5.87;;;7.20;99.90;;;;;;5117328;28;20247;-77
2023/01/03 01:45:05;;;;;;;6.47;5.87;;;7.20;99.90;;;;;;5116209;28;20837;-77
2023/01/03 01:47:36;;;;;;;7.00;6.37;;;7.30;99.90;;;;;;5116066;28;20198;-78
2023/01/03 01:50:16;;;;;;;6.30;5.70;;;7.30;99.90;;;;;;5115757;28;20280;-78
2023/01/03 01:52:50;;;;;;;6.17;5.60;;;7.30;99.90;;;;;;5116299;28;20221;-78
2023/01/03 01:55:23;;;;;;;6.70;6.07;;;7.20;99.90;;;;;;5116021;28;20199;-77
2023/01/03 01:57:50;;;;;;;6.57;5.97;;;7.20;99.90;;;;;;5115510;28;20195;-78
2023/01/03 02:00:17;;;;;;;6.63;5.97;;;7.20;99.90;;;;;;5115425;28;20203;-78
2023/01/03 02:02:44;;;;;;;7.70;6.90;;;7.30;99.90;;;;;;5115470;28;20200;-77
2023/01/03 02:05:11;;;;;;;7.33;6.23;;;7.30;99.90;;;;;;5115973;28;20195;-78
2023/01/03 02:07:38;;;;;;;7.10;6.40;;;7.30;99.90;;;;;;5115372;28;20221;-78
2023/01/03 02:10:06;;;;;;;6.70;6.10;;;7.40;99.90;;;;;;5115331;28;20276;-78
2023/01/03 02:15:43;;;;;;;7.20;6.50;;;7.30;99.90;;;;;;5115874;28;20696;-77
2023/01/03 02:18:22;;;;;;;7.27;6.53;;;7.30;99.90;;;;;;5116186;28;20199;-78
2023/01/03 02:21:37;;;;;;;7.33;6.63;;;7.30;99.90;;;;;;5116359;28;20256;-78
2023/01/03 02:24:31;;;;;;;8.00;7.27;;;7.30;99.90;;;;;;5116522;28;20191;-78
2023/01/03 02:27:06;;;;;;;7.60;6.70;;;7.30;99.90;;;;;;5116898;28;20195;-78
2023/01/03 02:30:20;;;;;;;7.73;7.03;;;7.30;99.90;;;;;;5116748;28;20215;-78
2023/01/03 02:32:53;;;;;;;8.70;7.10;;;7.30;99.90;;;;;;5116603;28;20260;-77
2023/01/03 02:35:27;;;;;;;8.03;7.23;;;7.30;99.90;;;;;;5116249;28;20202;-77
2023/01/03 02:37:59;;;;;;;7.67;6.77;;;7.30;99.90;;;;;;5116555;28;20195;-77
2023/01/03 02:40:32;;;;;;;7.63;6.93;;;7.20;99.90;;;;;;5117016;28;20202;-78
2023/01/03 02:43:04;;;;;;;7.33;6.63;;;7.20;99.90;;;;;;5117326;28;20205;-78
2023/01/03 02:45:51;;;;;;;7.30;6.60;;;7.10;99.90;;;;;;5117797;28;20230;-78
2023/01/03 02:48:30;;;;;;;7.90;6.87;;;7.10;99.90;;;;;;5117982;28;20237;-78
2023/01/03 02:51:00;;;;;;;7.80;7.00;;;7.00;99.90;;;;;;5117256;28;20682;-77
2023/01/03 02:53:30;;;;;;;7.83;7.03;;;7.00;99.90;;;;;;5117001;28;20208;-78
2023/01/03 02:56:03;;;;;;;7.83;7.03;;;6.90;99.90;;;;;;5116249;28;20304;-77
2023/01/03 02:58:33;;;;;;;7.67;6.87;;;6.90;99.90;;;;;;5116909;28;20234;-78
2023/01/03 03:01:02;;;;;;;8.27;7.10;;;6.80;99.90;;;;;;5117777;28;20272;-78
2023/01/03 03:03:35;;;;;;;8.30;7.13;;;6.80;99.90;;;;;;5117360;28;20273;-78
2023/01/03 03:06:08;;;;;;;7.60;6.90;;;6.70;99.90;;;;;;5117915;28;20258;-78
2023/01/03 03:08:35;;;;;;;8.03;7.23;;;6.70;99.90;;;;;;5116233;28;20760;-78
2023/01/03 03:13:50;;;;;;;8.37;7.57;;;6.70;99.90;;;;;;5116237;28;20206;-78
2023/01/03 03:16:46;;;;;;;10.17;7.57;;;6.70;99.90;;;;;;5116048;28;20199;-78
2023/01/03 03:24:48;;;;;;;9.00;8.10;;;6.60;99.90;;;;;;5116573;28;20202;-78
2023/01/03 03:24:59;;;;;;;8.87;8.03;;;6.50;99.90;;;;;;5116449;28;20278;-78
2023/01/03 03:30:17;;;;;;;9.50;8.50;;;6.50;99.90;;;;;;5116727;28;20283;-78
2023/01/03 03:32:46;;;;;;;9.97;8.60;;;6.50;99.90;;;;;;5116598;28;20195;-78
2023/01/03 03:35:18;;;;;;;9.13;8.23;;;6.40;99.90;;;;;;5116606;28;20199;-78
2023/01/03 03:37:48;;;;;;;9.77;8.57;;;6.30;99.90;;;;;;5116071;28;20217;-78
2023/01/03 03:45:54;;;;;;;11.50;9.20;;;6.10;99.90;;;;;;5116795;28;20665;-78
2023/01/03 03:48:25;;;;;;;12.07;9.77;;;6.00;99.90;;;;;;5116829;28;20245;-78
2023/01/03 03:50:57;;;;;;;10.73;9.50;;;5.90;99.90;;;;;;5116421;28;20227;-78
2023/01/03 03:53:27;;;;;;;11.90;9.97;;;5.90;99.90;;;;;;5116507;28;20651;-78
2023/01/03 03:55:58;;;;;;;10.70;9.57;;;5.80;99.90;;;;;;5117546;28;20221;-78
2023/01/03 03:58:29;;;;;;;14.93;9.57;;;5.80;99.90;;;;;;5122926;28;20276;-79
2023/01/03 04:00:57;;;;;;;11.90;10.17;;;5.70;99.90;;;;;;5124162;28;20559;-79
2023/01/03 04:03:25;;;;;;;13.37;10.57;;;5.70;99.90;;;;;;5125275;28;20221;-79
2023/01/03 04:05:57;;;;;;;11.83;10.03;;;5.70;99.90;;;;;;5119175;28;20248;-78
2023/01/03 04:08:24;;;;;;;12.20;9.70;;;5.60;99.90;;;;;;5116772;28;20272;-78
2023/01/03 04:10:50;;;;;;;11.93;10.30;;;5.60;99.90;;;;;;5115470;28;20219;-78
2023/01/03 04:13:17;;;;;;;13.20;10.77;;;5.60;99.90;;;;;;5115724;28;20200;-78
2023/01/03 04:15:44;;;;;;;11.83;10.27;;;5.60;99.90;;;;;;5114807;28;20199;-78
2023/01/03 04:18:10;;;;;;;13.23;10.20;;;5.60;99.90;;;;;;5113779;28;20200;-78
2023/01/03 04:20:37;;;;;;;13.70;10.50;;;5.50;99.90;;;;;;5115996;28;20191;-78
2023/01/03 04:23:05;;;;;;;13.77;10.40;;;5.40;99.90;;;;;;5118248;28;20195;-79
2023/01/03 04:25:31;;;;;;;13.53;10.37;;;5.30;99.90;;;;;;5118454;28;20195;-78
2023/01/03 04:27:58;;;;;;;12.27;10.40;;;5.30;99.90;;;;;;5118994;28;20200;-78
2023/01/03 04:30:25;;;;;;;13.47;10.63;;;5.20;99.90;;;;;;5120342;28;20647;-78
2023/01/03 04:32:51;;;;;;;14.83;10.70;;;5.20;99.90;;;;;;5119628;28;20196;-78
2023/01/03 04:35:18;;;;;;;13.50;10.50;;;5.20;99.90;;;;;;5119676;28;20254;-78
2023/01/03 04:37:44;;;;;;;13.03;10.60;;;5.20;99.90;;;;;;5119735;28;20192;-78
2023/01/03 04:40:12;;;;;;;13.87;12.00;;;5.20;99.90;;;;;;5119608;28;20196;-78
2023/01/03 04:45:23;;;;;;;14.50;11.57;;;5.20;99.90;;;;;;5119749;28;20223;-78
2023/01/03 04:47:50;;;;;;;13.43;11.37;;;5.20;99.90;;;;;;5119752;28;20192;-78
2023/01/03 04:50:17;;;;;;;14.70;12.07;;;5.20;99.90;;;;;;5120219;28;20716;-77
2023/01/03 04:52:43;;;;;;;15.37;12.40;;;5.10;99.90;;;;;;5120552;28;20227;-78
2023/01/03 04:55:11;;;;;;;15.07;11.97;;;5.10;99.90;;;;;;5121067;28;20200;-79
2023/01/03 04:57:39;;;;;;;14.03;11.17;;;4.90;99.90;;;;;;5119715;28;20253;-78
2023/01/03 05:00:07;;;;;;;16.07;12.10;;;4.70;99.90;;;;;;5119738;28;20245;-78
2023/01/03 05:02:34;;;;;;;14.50;11.20;;;4.70;99.90;;;;;;5119950;28;20246;-78
2023/01/03 05:05:01;;;;;;;16.10;12.37;;;4.60;99.90;;;;;;5119159;28;20246;-78
2023/01/03 05:07:28;;;;;;;15.03;12.03;;;4.60;99.90;;;;;;5119389;28;20253;-77
2023/01/03 05:09:54;;;;;;;16.80;12.60;;;4.50;99.90;;;;;;5115366;28;20222;-78
2023/01/03 05:12:21;;;;;;;19.23;13.70;;;4.40;99.90;;;;;;5101607;28;20231;-79
2023/01/03 05:14:49;;;;;;;19.57;13.37;;;4.50;99.90;;;;;;5107461;28;20269;-79
2023/01/03 05:17:18;;;;;;;21.03;14.63;;;4.50;99.90;;;;;;5105069;28;20245;-79
2023/01/03 05:27:54;;;;;;;22.10;14.70;;;4.80;99.90;;;;;;5107822;28;20215;-79
2023/01/03 05:30:22;;;;;;;26.23;16.80;;;4.80;99.90;;;;;;5106270;28;20222;-79
2023/01/03 05:32:49;;;;;;;19.90;14.90;;;4.90;99.90;;;;;;5102827;28;20273;-78
2023/01/03 05:35:16;;;;;;;22.13;15.77;;;4.80;99.90;;;;;;5101712;28;20222;-79
2023/01/03 05:37:42;;;;;;;19.33;14.47;;;4.70;99.90;;;;;;5097680;28;20204;-78
2023/01/03 05:40:10;;;;;;;19.30;14.23;;;4.60;99.90;;;;;;5096169;28;20196;-78
2023/01/03 05:42:36;;;;;;;19.87;14.47;;;4.60;99.90;;;;;;5095935;28;20251;-78
2023/01/03 05:45:03;;;;;;;19.47;14.23;;;4.60;99.90;;;;;;5096252;28;20196;-78
2023/01/03 05:47:31;;;;;;;20.33;15.30;;;4.50;99.90;;;;;;5095892;28;20196;-78
2023/01/03 05:49:57;;;;;;;21.90;14.67;;;4.50;99.90;;;;;;5095925;28;20196;-78
2023/01/03 05:52:24;;;;;;;22.90;15.70;;;4.60;99.90;;;;;;5095820;28;20224;-78
2023/01/03 05:54:51;;;;;;;19.97;15.00;;;4.60;99.90;;;;;;5096023;28;20254;-77
2023/01/03 05:57:17;;;;;;;22.87;15.63;;;4.60;99.90;;;;;;5095981;28;20552;-78
2023/01/03 05:59:44;;;;;;;24.97;15.87;;;4.60;99.90;;;;;;5095326;28;20254;-78
2023/01/03 06:02:11;;;;;;;22.20;16.07;;;4.70;99.90;;;;;;5095361;28;20200;-77
2023/01/03 06:04:39;;;;;;;25.00;17.13;;;4.70;99.90;;;;;;5095241;28;20567;-78
2023/01/03 06:07:05;;;;;;;23.83;15.77;;;4.70;99.90;;;;;;5095693;28;20254;-78
2023/01/03 06:09:32;;;;;;;24.37;16.67;;;4.70;99.90;;;;;;5094839;28;20278;-77
2023/01/03 06:11:58;;;;;;;24.57;16.87;;;4.70;99.90;;;;;;5095292;28;20634;-79
2023/01/03 06:14:25;;;;;;;25.57;17.47;;;4.60;99.90;;;;;;5095285;28;20196;-78
2023/01/03 06:19:36;;;;;;;27.73;17.27;;;4.60;99.90;;;;;;5095274;28;20590;-78
2023/01/03 06:22:04;;;;;;;28.50;18.50;;;4.50;99.90;;;;;;5095269;28;20200;-78
2023/01/03 06:24:30;;;;;;;26.87;17.60;;;4.40;99.90;;;;;;5095206;28;20555;-78
2023/01/03 06:26:57;;;;;;;26.03;17.90;;;4.40;99.90;;;;;;5077661;28;20230;-78
2023/01/03 06:29:24;;;;;;;25.70;17.27;;;4.40;99.90;;;;;;5095356;28;20200;-78
2023/01/03 06:31:50;;;;;;;27.87;17.60;;;4.40;99.90;;;;;;5095881;28;20223;-78
2023/01/03 06:34:17;;;;;;;25.47;17.47;;;4.40;99.90;;;;;;5095666;28;20199;-78
2023/01/03 06:36:44;;;;;;;26.50;17.77;;;4.40;99.90;;;;;;5095322;28;20257;-79
2023/01/03 06:39:12;;;;;;;26.73;17.37;;;4.40;99.90;;;;;;5095939;28;20196;-78
2023/01/03 06:41:38;;;;;;;29.00;18.10;;;4.40;99.90;;;;;;5094875;28;20204;-78
2023/01/03 06:44:06;;;;;;;25.63;16.90;;;4.40;99.90;;;;;;5093724;28;20249;-78
2023/01/03 06:54:49;;;;;;;31.73;21.63;;;4.20;99.90;;;;;;5094706;28;20195;-78
2023/01/03 06:57:15;;;;;;;28.70;17.70;;;4.10;99.90;;;;;;5094720;28;20226;-78
2023/01/03 06:59:42;;;;;;;28.10;18.77;;;4.20;99.90;;;;;;5094839;28;20254;-79
2023/01/03 07:02:09;;;;;;;29.03;19.63;;;4.10;99.90;;;;;;5094527;28;20563;-78
2023/01/03 07:04:35;;;;;;;31.47;19.83;;;4.10;99.90;;;;;;5094017;28;20244;-78
2023/01/03 07:07:02;;;;;;;32.00;19.93;;;4.10;99.90;;;;;;5094136;28;20704;-78
2023/01/03 07:09:28;;;;;;;29.40;18.80;;;4.10;99.90;;;;;;5093865;28;20325;-78
2023/01/03 07:11:56;;;;;;;30.03;18.20;;;4.10;99.90;;;;;;5094330;28;20276;-78
2023/01/03 07:14:22;;;;;;;31.77;19.10;;;4.10;99.90;;;;;;5094490;28;20199;-78
2023/01/03 07:16:49;;;;;;;29.53;18.60;;;4.00;99.90;;;;;;5094411;28;20248;-78
2023/01/03 07:19:18;;;;;;;27.73;18.73;;;4.00;99.90;;;;;;5094316;28;20567;-77
2023/01/03 07:21:46;;;;;;;29.20;18.97;;;4.10;99.90;;;;;;5094212;28;20253;-78
2023/01/03 07:24:14;;;;;;;30.47;20.77;;;4.00;99.90;;;;;;5094658;28;20268;-78
2023/01/03 07:26:41;;;;;;;31.80;20.80;;;4.00;99.90;;;;;;5094021;28;20658;-78
2023/01/03 07:29:10;;;;;;;31.37;19.67;;;4.00;99.90;;;;;;5096327;28;20196;-79
2023/01/03 07:31:39;;;;;;;31.93;20.67;;;4.10;99.90;;;;;;5103140;28;20277;-78
2023/01/03 07:34:06;;;;;;;31.23;20.50;;;4.00;99.90;;;;;;5102094;28;20256;-78
2023/01/03 07:36:33;;;;;;;29.67;18.60;;;4.00;99.90;;;;;;5094373;28;20196;-78
2023/01/03 07:38:59;;;;;;;33.63;21.00;;;4.00;99.90;;;;;;5094241;28;20204;-78
2023/01/03 07:43:35;;;;;;;31.37;20.47;;;4.10;99.90;;;;;;5094611;28;20199;-78
2023/01/03 07:44:13;;;;;;;34.40;21.53;;;4.10;99.90;;;;;;5097190;28;20224;-79
2023/01/03 07:46:41;;;;;;;41.27;25.07;;;4.10;99.90;;;;;;5097406;28;20657;-78
2023/01/03 07:49:08;;;;;;;34.93;22.23;;;4.00;99.90;;;;;;5095787;28;20199;-79
2023/01/03 07:51:34;;;;;;;33.97;20.83;;;4.00;99.90;;;;;;5096121;28;20200;-78
2023/01/03 07:54:01;;;;;;;36.40;22.50;;;4.00;99.90;;;;;;5097937;28;20199;-78
2023/01/03 07:56:28;;;;;;;34.50;20.87;;;4.00;99.90;;;;;;5103218;28;20218;-78
2023/01/03 07:58:55;;;;;;;36.37;23.23;;;4.00;99.90;;;;;;5102813;28;20264;-78
2023/01/03 08:01:24;;;;;;;38.50;25.33;;;4.10;99.90;;;;;;5101823;28;20200;-78
2023/01/03 08:03:51;;;;;;;34.43;21.77;;;4.10;99.90;;;;;;5101379;28;20249;-78
2023/01/03 08:06:21;;;;;;;36.60;23.70;;;4.10;99.90;;;;;;5101058;28;20269;-78
2023/01/03 08:13:16;;;;;;;38.33;24.60;;;4.10;99.90;;;;;;5100247;28;20592;-79
2023/01/03 08:14:19;;;;;;;33.30;21.63;;;4.20;99.90;;;;;;5100872;28;20203;-78
2023/01/03 08:16:47;;;;;;;34.63;22.80;;;4.30;99.90;;;;;;5101279;28;20605;-78
2023/01/03 08:19:13;;;;;;;28.80;20.13;;;4.40;99.90;;;;;;5100623;28;20196;-78
2023/01/03 08:21:40;;;;;;;30.57;21.33;;;4.50;99.90;;;;;;5100534;28;20200;-79
2023/01/03 08:24:07;;;;;;;29.43;19.83;;;4.60;99.90;;;;;;5100131;28;20273;-78
2023/01/03 08:26:34;;;;;;;30.30;21.33;;;4.70;99.90;;;;;;5100672;28;20196;-78
2023/01/03 08:29:00;;;;;;;26.90;19.63;;;4.90;99.90;;;;;;5101834;28;20656;-79
2023/01/03 08:31:32;;;;;;;26.83;19.27;;;5.00;99.90;;;;;;5100694;28;20193;-79
2023/01/03 08:34:03;;;;;;;25.90;18.50;;;5.10;99.90;;;;;;5100411;28;20548;-79
2023/01/03 08:36:34;;;;;;;24.27;18.23;;;5.20;99.90;;;;;;5100854;28;20243;-78
2023/01/03 08:39:05;;;;;;;26.00;18.07;;;5.20;99.90;;;;;;5100436;28;20269;-79
2023/01/03 08:41:36;;;;;;;20.13;15.73;;;5.40;99.90;;;;;;5100277;28;20677;-78
2023/01/03 08:44:04;;;;;;;23.93;16.60;;;5.70;99.90;;;;;;5100456;28;20544;-79
2023/01/03 08:46:33;;;;;;;21.97;16.20;;;5.80;99.90;;;;;;5100515;28;20236;-79
2023/01/03 08:49:01;;;;;;;17.97;14.20;;;6.00;99.90;;;;;;5100148;28;20198;-79
2023/01/03 08:51:28;;;;;;;15.77;13.40;;;6.20;99.90;;;;;;5101023;28;20192;-79
2023/01/03 08:53:55;;;;;;;17.27;14.23;;;6.40;99.90;;;;;;5100504;28;20255;-79
2023/01/03 08:56:22;;;;;;;16.33;13.47;;;6.60;99.90;;;;;;5100170;28;20245;-79
2023/01/03 08:58:49;;;;;;;18.27;15.43;;;6.80;99.90;;;;;;5082651;28;20204;-79
2023/01/03 09:01:16;;;;;;;11.73;10.37;;;7.00;99.90;;;;;;5100225;28;20196;-79
2023/01/03 09:03:42;;;;;;;13.50;10.33;;;7.10;99.90;;;;;;5100261;28;20204;-79
2023/01/03 09:06:10;;;;;;;11.00;9.30;;;7.10;99.90;;;;;;5098033;28;20200;-79
2023/01/03 09:08:37;;;;;;;10.67;9.57;;;7.00;99.90;;;;;;5097583;28;20228;-79
2023/01/03 09:11:05;;;;;;;10.93;9.17;;;6.90;99.90;;;;;;5097813;28;20196;-79
2023/01/03 09:13:32;;;;;;;10.37;8.97;;;6.90;99.90;;;;;;5101332;28;20586;-80
2023/01/03 09:16:01;;;;;;;11.17;9.97;;;6.90;99.90;;;;;;5107547;28;20219;-79
2023/01/03 09:18:27;;;;;;;11.03;9.73;;;6.90;99.90;;;;;;5108473;28;20216;-80
2023/01/03 09:20:54;;;;;;;10.47;9.10;;;6.90;99.90;;;;;;5107965;28;20222;-80
2023/01/03 09:23:22;;;;;;;11.30;9.67;;;7.00;99.90;;;;;;5099921;28;20197;-79
2023/01/03 09:25:54;;;;;;;10.87;9.30;;;7.20;99.90;;;;;;5099329;28;20707;-82
2023/01/03 09:28:21;;;;;;;13.30;9.83;;;7.40;99.90;;;;;;5099420;28;20258;-80
2023/01/03 09:30:47;;;;;;;10.47;9.17;;;7.30;99.90;;;;;;5099091;28;20606;-79
2023/01/03 09:33:14;;;;;;;10.20;9.10;;;7.30;99.90;;;;;;5098185;28;20272;-79
2023/01/03 09:35:41;;;;;;;11.70;9.07;;;7.40;99.90;;;;;;5104815;28;20274;-78
2023/01/03 09:38:08;;;;;;;9.67;8.63;;;7.30;99.90;;;;;;5096001;28;20553;-79
2023/01/03 09:40:40;;;;;;;9.80;8.03;;;7.40;99.90;;;;;;5099184;28;20219;-80
2023/01/03 09:43:14;;;;;;;12.47;10.00;;;7.30;99.90;;;;;;5097561;28;20192;-79
2023/01/03 09:45:43;;;;;;;12.33;10.93;;;7.50;99.90;;;;;;5096971;28;20204;-78
2023/01/03 09:48:14;;;;;;;11.90;8.60;;;7.50;99.90;;;;;;5097791;28;20689;-79
2023/01/03 09:50:43;;;;;;;12.07;10.20;;;7.60;99.90;;;;;;5096520;28;20273;-79
2023/01/03 10:04:55;;;;;;;9.10;8.20;;;8.00;99.90;;;;;;5096575;28;20311;-80
2023/01/03 10:07:36;;;;;;;10.07;8.10;;;8.30;99.90;;;;;;5097149;28;20569;-80
2023/01/03 10:10:17;;;;;;;9.53;8.00;;;8.10;99.90;;;;;;5096331;28;20196;-79
2023/01/03 10:12:57;;;;;;;9.40;8.33;;;8.20;99.90;;;;;;5096746;28;20289;-80
2023/01/03 10:15:36;;;;;;;10.40;8.87;;;8.40;99.90;;;;;;5098538;28;20192;-80
2023/01/03 10:18:13;;;;;;;10.23;8.60;;;8.60;99.90;;;;;;5099633;28;20196;-79
2023/01/03 10:20:46;;;;;;;30.07;21.07;;;8.60;99.90;;;;;;5099159;28;20257;-79
2023/01/03 10:23:13;;;;;;;9.43;8.23;;;8.90;99.90;;;;;;5102813;28;20655;-80
2023/01/03 10:25:42;;;;;;;8.80;7.90;;;9.20;99.90;;;;;;5102579;28;20197;-80
2023/01/03 10:28:16;;;;;;;7.53;6.73;;;10.00;99.90;;;;;;5103565;28;20205;-80
2023/01/03 10:31:03;;;;;;;7.40;6.70;;;11.10;99.90;;;;;;5100291;28;20605;-79
2023/01/03 10:33:33;;;;;;;8.13;6.73;;;12.00;99.90;;;;;;5095941;28;20227;-79
2023/01/03 10:35:59;;;;;;;7.53;6.78;;;12.70;99.90;;;;;;5096926;28;20614;-78
2023/01/03 10:38:28;;;;;;;7.22;6.53;;;12.90;99.90;;;;;;5097127;28;20192;-79
2023/01/03 10:40:57;;;;;;;7.70;6.25;;;12.10;99.90;;;;;;5097495;28;20192;-79
2023/01/03 10:43:30;;;;;;;7.10;6.45;;;11.90;99.90;;;;;;5098923;28;20559;-78
2023/01/03 10:45:59;;;;;;;6.60;5.97;;;11.90;99.90;;;;;;5107631;28;20229;-81
2023/01/03 10:48:35;;;;;;;6.45;5.80;;;11.90;99.90;;;;;;5113383;28;20204;-79
2023/01/03 10:51:04;;;;;;;5.22;4.72;;;12.80;99.90;;;;;;5111734;28;20715;-80
2023/01/03 10:53:42;;;;;;;6.82;5.22;;;12.50;99.90;;;;;;5120978;28;20628;-80
2023/01/03 10:56:13;;;;;;;5.75;5.18;;;13.20;99.90;;;;;;5121863;28;20202;-79
2023/01/03 10:58:41;;;;;;;6.38;5.72;;;12.80;99.90;;;;;;5127474;28;20196;-80
2023/01/03 11:01:20;;;;;;;5.80;5.20;;;13.00;99.90;;;;;;5137194;28;20226;-78
2023/01/03 11:04:07;;;;;;;6.43;5.00;;;12.50;99.90;;;;;;5116462;28;20195;-78
2023/01/03 11:06:34;;;;;;;5.43;4.03;;;12.60;99.90;;;;;;5118093;28;20241;-78
2023/01/03 11:09:03;;;;;;;5.78;3.92;;;12.30;99.90;;;;;;5114176;28;20219;-78
2023/01/03 11:11:32;;;;;;;4.30;3.90;;;11.90;99.90;;;;;;5115139;28;20199;-79
2023/01/03 11:14:15;;;;;;;4.13;3.73;;;12.00;99.90;;;;;;5115208;28;20702;-79
2023/01/03 11:16:42;;;;;;;5.43;4.13;;;11.40;99.90;;;;;;5115370;28;20256;-80
2023/01/03 11:19:17;;;;;;;4.87;4.47;;;11.90;99.90;;;;;;5116771;28;20191;-79
2023/01/03 11:21:51;;;;;;;5.47;4.33;;;12.40;99.90;;;;;;5121791;28;20195;-80
2023/01/03 11:24:30;;;;;;;4.47;4.07;;;13.20;99.90;;;;;;5116098;28;20196;-78
2023/01/03 11:27:07;;;;;;;4.43;4.03;;;14.40;99.90;;;;;;5120058;28;20199;-82
2023/01/03 11:29:52;;;;;;;4.25;3.85;;;16.00;99.90;;;;;;5113633;28;20225;-79
2023/01/03 11:32:32;;;;;;;4.30;3.90;;;15.80;99.90;;;;;;5115026;28;20195;-78
2023/01/03 11:35:12;;;;;;;5.15;4.07;;;15.50;99.90;;;;;;5118406;28;20206;-79
2023/01/03 11:37:54;;;;;;;4.95;3.50;;;15.00;99.90;;;;;;5117214;28;20195;-78
2023/01/03 11:40:28;;;;;;;4.70;3.75;;;14.30;99.90;;;;;;5117252;28;20237;-78
2023/01/03 11:43:06;;;;;;;4.03;3.15;;;13.80;99.90;;;;;;5116998;28;20195;-78
2023/01/03 11:45:47;;;;;;;3.83;3.08;;;12.70;99.90;;;;;;5115737;28;20195;-78
2023/01/03 11:48:28;;;;;;;4.32;3.58;;;13.70;99.90;;;;;;5115281;28;20192;-78
2023/01/03 11:51:02;;;;;;;5.10;3.47;;;13.10;99.90;;;;;;5115141;28;20719;-78
2023/01/03 11:53:35;;;;;;;3.65;2.97;;;14.30;99.90;;;;;;5115454;28;20275;-77
2023/01/03 11:56:12;;;;;;;4.55;3.13;;;15.00;99.90;;;;;;5114360;28;20199;-78
2023/01/03 11:59:07;;;;;;;3.55;2.40;;;16.60;99.90;;;;;;5116926;28;20191;-77
2023/01/03 12:02:02;;;;;;;2.58;2.30;;;17.40;99.90;;;;;;5062718;28;20196;-79
2023/01/03 12:04:35;;;;;;;4.20;2.85;;;17.60;99.90;;;;;;5113059;28;20654;-77
2023/01/03 12:07:12;;;;;;;4.15;2.55;;;18.30;99.70;;;;;;5113271;28;20200;-78
2023/01/03 12:09:45;;;;;;;2.70;2.45;;;17.60;98.90;;;;;;5113538;28;20227;-78
2023/01/03 12:12:26;;;;;;;3.70;2.45;;;15.70;99.90;;;;;;5113764;28;20651;-76
2023/01/03 12:14:57;;;;;;;3.13;2.42;;;16.30;99.90;;;;;;5114576;28;20276;-78
2023/01/03 12:17:33;;;;;;;4.72;2.72;;;16.20;99.90;;;;;;5114251;28;20252;-78
2023/01/03 12:20:05;;;;;;;2.45;2.25;;;17.80;99.80;;;;;;5113484;28;20274;-77
2023/01/03 12:22:37;;;;;;;3.60;2.58;;;17.80;98.50;;;;;;5112967;28;20191;-77
2023/01/03 12:25:16;;;;;;;2.65;2.22;;;18.70;97.30;;;;;;5113066;28;20229;-77
2023/01/03 12:27:46;;;;;;;3.67;2.30;;;18.20;95.90;;;;;;5112852;28;20221;-78
2023/01/03 12:30:26;;;;;;;2.30;2.05;;;17.60;97.10;;;;;;5113038;28;20720;-77
2023/01/03 12:32:58;;;;;;;3.70;2.30;;;17.00;96.00;;;;;;5113940;28;20655;-78
2023/01/03 12:35:30;;;;;;;5.43;2.42;;;17.90;96.30;;;;;;5112825;28;20245;-78
2023/01/03 12:37:58;;;;;;;4.32;3.72;;;17.90;95.40;;;;;;5112714;28;20204;-78
2023/01/03 12:40:33;;;;;;;4.25;2.28;;;18.90;95.50;;;;;;5112551;28;20200;-78
2023/01/03 12:43:09;;;;;;;4.53;2.15;;;18.60;93.50;;;;;;5116058;28;20715;-77
2023/01/03 12:45:47;;;;;;;3.20;2.10;;;19.00;93.20;;;;;;5106216;28;20187;-78
2023/01/03 12:48:30;;;;;;;3.67;2.28;;;20.70;91.70;;;;;;5116250;28;20650;-77
2023/01/03 12:50:57;;;;;;;3.15;1.95;;;20.50;88.40;;;;;;5116475;28;20225;-78
2023/01/03 12:53:30;;;;;;;3.50;2.63;;;20.80;88.10;;;;;;5115852;28;20223;-75
2023/01/03 12:56:11;;;;;;;2.55;1.95;;;21.40;83.20;;;;;;5116206;28;20199;-77
2023/01/03 12:58:49;;;;;;;5.00;2.00;;;20.40;82.10;;;;;;5116601;28;20551;-81
2023/01/03 13:01:21;;;;;;;3.38;1.85;;;20.30;82.80;;;;;;5115858;28;20590;-80
2023/01/03 13:03:53;;;;;;;3.60;2.47;;;18.90;83.30;;;;;;5116167;28;20199;-79
2023/01/03 13:06:23;;;;;;;2.65;2.17;;;20.60;83.20;;;;;;5115973;28;20283;-84
2023/01/03 13:08:56;;;;;;;2.85;2.20;;;20.10;80.90;;;;;;5115847;28;20231;-83
2023/01/03 13:11:27;;;;;;;1.77;1.50;;;19.40;82.40;;;;;;5115878;28;20200;-80
2023/01/03 13:13:58;;;;;;;2.45;1.70;;;20.20;79.30;;;;;;5115506;28;20228;-79
2023/01/03 13:16:40;;;;;;;2.22;1.55;;;20.70;78.50;;;;;;5115322;28;20200;-82
2023/01/03 13:19:50;;;;;;;3.67;1.83;;;19.70;75.70;;;;;;5097650;28;20253;-80
2023/01/03 13:22:36;;;;;;;2.38;2.03;;;19.50;78.00;;;;;;5082164;28;20539;-79
2023/01/03 13:25:28;;;;;;;3.00;2.20;;;19.90;78.00;;;;;;5093824;28;20203;-78
2023/01/03 13:27:57;;;;;;;3.05;2.20;;;19.20;78.80;;;;;;5101888;28;20728;-82
2023/01/03 13:30:25;;;;;;;3.05;2.05;;;19.30;78.30;;;;;;5115197;28;20712;-84
2023/01/03 13:32:54;;;;;;;2.10;1.90;;;18.90;79.70;;;;;;5115556;28;20204;-83
2023/01/03 13:35:36;;;;;;;4.15;1.98;;;19.70;76.70;;;;;;5115034;28;20318;-81
2023/01/03 13:38:21;;;;;;;2.55;1.98;;;20.30;75.90;;;;;;5115390;28;20595;-79
2023/01/03 13:40:49;;;;;;;3.55;2.28;;;20.30;73.30;;;;;;5115599;28;20199;-78
2023/01/03 13:43:19;;;;;;;2.75;1.90;;;21.00;73.60;;;;;;5115379;28;20260;-79
2023/01/03 13:45:52;;;;;;;5.13;2.28;;;20.70;72.00;;;;;;5115382;28;20196;-81
2023/01/03 13:48:24;;;;;;;3.28;2.28;;;21.50;71.80;;;;;;5115253;28;20196;-77
2023/01/03 13:51:32;;;;;;;2.95;2.20;;;19.10;74.60;;;;;;5115219;28;20196;-76
2023/01/03 13:54:02;;;;;;;12.40;9.32;;;15.10;82.10;;;;;;5114945;28;20223;-82
2023/01/03 13:56:31;;;;;;;6.07;4.95;;;17.20;81.70;;;;;;5115050;28;20669;-81
2023/01/03 13:59:08;;;;;;;6.03;2.80;;;18.40;78.20;;;;;;5121610;28;20577;-81
2023/01/03 14:01:51;;;;;;;5.97;2.90;;;19.70;75.60;;;;;;5115022;28;20256;-81